Time;durP1;ratioP1;P1;durP2;ratioP2;P2;SDS_P1;SDS_P2;PMS_P1;PMS_P2;Temp;Humidity;BMP_temperature;BMP_pressure;BME280_temperature;BME280_humidity;BME280_pressure;Samples;Min_cycle;Max_cycle;Signal;HPM_P1;HPM_P2
2021/11/01 00:01:11;;;;;;;8.43;4.03;;;14.80;99.90;;;;;;5014118;28;20407;-67
2021/11/01 00:03:36;;;;;;;4.67;2.70;;;14.80;99.90;;;;;;5004867;28;20192;-68
2021/11/01 00:06:02;;;;;;;9.37;3.73;;;14.80;99.90;;;;;;5012740;28;20413;-67
2021/11/01 00:08:28;;;;;;;6.10;3.50;;;14.80;99.90;;;;;;5011678;28;20184;-71
2021/11/01 00:10:54;;;;;;;7.27;2.97;;;14.70;99.90;;;;;;5009865;28;20486;-67
2021/11/01 00:13:20;;;;;;;5.30;3.63;;;14.80;99.90;;;;;;5012348;28;20233;-68
2021/11/01 00:15:46;;;;;;;4.73;3.27;;;14.70;99.90;;;;;;4994257;28;20494;-67
2021/11/01 00:18:12;;;;;;;4.13;2.50;;;14.70;99.90;;;;;;4994514;28;20263;-67
2021/11/01 00:20:38;;;;;;;7.10;3.50;;;14.70;99.90;;;;;;5011247;28;20681;-67
2021/11/01 00:23:04;;;;;;;8.03;3.10;;;14.60;99.90;;;;;;5011999;28;20426;-67
2021/11/01 00:25:30;;;;;;;5.80;3.60;;;14.50;99.90;;;;;;5011565;28;20183;-67
2021/11/01 00:27:55;;;;;;;7.53;3.30;;;14.40;99.90;;;;;;5012063;28;20421;-67
2021/11/01 00:30:21;;;;;;;3.10;2.57;;;14.40;99.90;;;;;;5012005;28;20207;-67
2021/11/01 00:32:47;;;;;;;4.90;3.27;;;14.50;99.90;;;;;;4993413;28;20245;-69
2021/11/01 00:35:14;;;;;;;4.80;3.47;;;14.50;99.90;;;;;;5012177;28;20237;-67
2021/11/01 00:37:40;;;;;;;6.07;3.20;;;14.40;99.90;;;;;;5011311;28;20175;-67
2021/11/01 00:40:07;;;;;;;7.40;3.33;;;14.30;99.90;;;;;;5012026;28;20471;-67
2021/11/01 00:42:32;;;;;;;5.27;3.20;;;14.30;99.90;;;;;;5011253;28;20972;-67
2021/11/01 00:44:59;;;;;;;10.00;3.13;;;14.30;99.90;;;;;;5011412;28;20423;-67
2021/11/01 00:47:25;;;;;;;8.80;3.20;;;14.30;99.90;;;;;;5010706;28;20830;-73
2021/11/01 00:49:51;;;;;;;7.10;3.30;;;14.30;99.90;;;;;;4994217;28;20445;-67
2021/11/01 00:52:22;;;;;;;5.20;3.17;;;14.20;99.90;;;;;;5013024;28;20402;-67
2021/11/01 00:54:49;;;;;;;5.37;3.33;;;14.20;99.90;;;;;;5012674;28;20415;-67
2021/11/01 00:57:15;;;;;;;10.13;3.93;;;14.10;99.90;;;;;;5012975;28;20423;-67
2021/11/01 00:59:41;;;;;;;4.07;3.33;;;14.10;99.90;;;;;;5012125;28;20531;-67
2021/11/01 01:02:10;;;;;;;5.73;3.50;;;14.00;99.90;;;;;;5012746;28;20934;-67
2021/11/01 01:04:36;;;;;;;6.00;3.90;;;14.00;99.90;;;;;;5012195;28;20414;-67
2021/11/01 01:07:02;;;;;;;6.83;3.73;;;14.00;99.90;;;;;;4995197;28;20944;-67
2021/11/01 01:09:28;;;;;;;7.40;4.20;;;14.00;99.90;;;;;;5012349;28;20183;-72
2021/11/01 01:11:54;;;;;;;3.80;3.30;;;14.00;99.90;;;;;;5012469;28;20409;-67
2021/11/01 01:14:26;;;;;;;6.77;3.40;;;14.00;99.90;;;;;;5012795;28;20212;-67
2021/11/01 01:16:52;;;;;;;6.47;3.30;;;14.00;99.90;;;;;;5012091;28;20385;-67
2021/11/01 01:19:23;;;;;;;5.43;3.97;;;14.00;99.90;;;;;;5012432;28;20461;-67
2021/11/01 01:24:34;;;;;;;5.63;3.43;;;14.10;99.90;;;;;;5011576;28;20397;-67
2021/11/01 01:27:00;;;;;;;5.23;3.10;;;14.10;99.90;;;;;;5012762;28;20777;-67
2021/11/01 01:29:25;;;;;;;6.50;3.73;;;14.10;99.90;;;;;;5012309;28;20445;-67
2021/11/01 01:31:51;;;;;;;5.70;4.10;;;14.00;99.90;;;;;;5012268;28;20187;-67
2021/11/01 01:34:18;;;;;;;5.37;3.77;;;14.00;99.90;;;;;;5012414;28;20636;-67
2021/11/01 01:36:45;;;;;;;7.87;3.10;;;14.00;99.90;;;;;;4994255;28;20501;-67
2021/11/01 01:39:11;;;;;;;3.57;2.87;;;14.00;99.90;;;;;;5012439;28;20465;-67
2021/11/01 01:41:45;;;;;;;3.90;2.83;;;14.10;99.90;;;;;;5011547;28;20412;-67
2021/11/01 01:44:12;;;;;;;6.87;3.10;;;14.10;99.90;;;;;;4994635;28;20420;-67
2021/11/01 01:46:38;;;;;;;7.63;4.03;;;14.10;99.90;;;;;;4994049;28;20434;-67
2021/11/01 01:49:04;;;;;;;6.23;3.30;;;14.10;99.90;;;;;;5012129;28;20891;-67
2021/11/01 01:51:30;;;;;;;7.50;3.13;;;14.10;99.90;;;;;;5011628;28;20214;-73
2021/11/01 01:53:57;;;;;;;4.60;2.90;;;14.10;99.90;;;;;;5012308;28;20213;-67
2021/11/01 01:56:25;;;;;;;5.93;3.00;;;14.10;99.90;;;;;;4994726;28;20485;-67
2021/11/01 01:58:56;;;;;;;8.10;3.43;;;14.10;99.90;;;;;;5013334;28;20405;-68
2021/11/01 02:01:22;;;;;;;4.67;2.77;;;14.10;99.90;;;;;;4976851;28;20446;-67
2021/11/01 02:03:50;;;;;;;6.73;3.53;;;14.10;99.90;;;;;;4995901;28;21236;-67
2021/11/01 02:06:25;;;;;;;7.73;3.03;;;14.10;99.90;;;;;;4996626;28;20427;-67
2021/11/01 02:09:12;;;;;;;5.67;3.00;;;14.10;99.90;;;;;;4996091;28;20419;-67
2021/11/01 02:12:05;;;;;;;5.23;2.83;;;14.10;99.90;;;;;;4995890;28;20430;-67
2021/11/01 02:14:44;;;;;;;2.40;2.30;;;14.00;99.90;;;;;;4998191;28;20460;-72
2021/11/01 02:17:16;;;;;;;3.83;2.60;;;14.00;99.90;;;;;;5016145;28;20861;-67
2021/11/01 02:19:47;;;;;;;7.10;2.93;;;13.90;99.90;;;;;;5015295;28;20495;-67
2021/11/01 02:22:46;;;;;;;6.97;2.70;;;13.90;99.90;;;;;;5015822;28;20397;-67
2021/11/01 02:25:38;;;;;;;3.23;2.90;;;13.80;99.90;;;;;;5005262;28;20430;-67
2021/11/01 02:28:05;;;;;;;7.37;2.93;;;13.80;99.90;;;;;;5015699;28;20901;-68
2021/11/01 02:30:31;;;;;;;3.97;3.67;;;13.80;99.90;;;;;;5015503;28;20412;-73
2021/11/01 02:32:58;;;;;;;7.47;2.83;;;13.90;99.90;;;;;;5015170;28;20413;-67
2021/11/01 02:35:25;;;;;;;3.33;2.33;;;13.90;99.90;;;;;;5015339;28;20432;-67
2021/11/01 02:37:51;;;;;;;5.40;2.80;;;13.90;99.90;;;;;;5014941;28;20508;-67
2021/11/01 02:40:17;;;;;;;6.50;2.67;;;13.90;99.90;;;;;;4998131;28;20567;-67
2021/11/01 02:42:44;;;;;;;6.23;2.73;;;13.90;99.90;;;;;;4993622;28;20465;-67
2021/11/01 02:45:12;;;;;;;3.97;2.43;;;13.90;99.90;;;;;;4994534;28;20180;-67
2021/11/01 02:47:39;;;;;;;7.53;3.47;;;13.90;99.90;;;;;;4993749;28;20423;-67
2021/11/01 02:50:07;;;;;;;7.03;2.80;;;13.90;99.90;;;;;;4995777;28;20437;-67
2021/11/01 02:52:33;;;;;;;3.40;2.77;;;13.90;99.90;;;;;;4995327;28;20508;-72
2021/11/01 02:55:01;;;;;;;5.27;2.90;;;13.90;99.90;;;;;;4995479;28;20509;-67
2021/11/01 02:57:26;;;;;;;4.17;2.47;;;14.00;99.90;;;;;;4995716;28;20175;-67
2021/11/01 02:59:52;;;;;;;9.60;3.53;;;13.90;99.90;;;;;;4994854;28;21085;-67
2021/11/01 03:02:18;;;;;;;3.17;2.57;;;13.90;99.90;;;;;;4995339;28;20182;-67
2021/11/01 03:04:44;;;;;;;7.50;3.00;;;13.90;99.90;;;;;;4994490;28;20268;-67
2021/11/01 03:07:11;;;;;;;6.20;2.80;;;14.00;99.90;;;;;;4995562;28;20925;-67
2021/11/01 03:09:40;;;;;;;3.20;2.60;;;13.90;99.90;;;;;;4994110;28;20408;-67
2021/11/01 03:12:12;;;;;;;7.00;2.47;;;14.00;99.90;;;;;;4994777;28;20836;-67
2021/11/01 03:14:45;;;;;;;6.03;2.30;;;14.00;99.90;;;;;;4994944;28;20451;-67
2021/11/01 03:17:20;;;;;;;4.07;2.47;;;14.00;99.90;;;;;;4991635;28;20770;-67
2021/11/01 03:19:53;;;;;;;4.87;2.70;;;13.80;99.90;;;;;;4994367;28;20462;-67
2021/11/01 03:22:19;;;;;;;8.27;3.47;;;13.80;99.90;;;;;;4994185;28;20403;-67
2021/11/01 03:24:48;;;;;;;4.40;2.70;;;13.70;99.90;;;;;;4994465;28;20450;-67
2021/11/01 03:27:18;;;;;;;5.33;2.70;;;13.80;99.90;;;;;;4994280;28;20845;-67
2021/11/01 03:29:45;;;;;;;4.20;2.40;;;13.80;99.90;;;;;;4993167;28;20429;-67
2021/11/01 03:32:12;;;;;;;3.70;2.50;;;13.80;99.90;;;;;;4995362;28;20471;-67
2021/11/01 03:34:40;;;;;;;4.87;2.50;;;13.90;99.90;;;;;;4994343;28;20774;-73
2021/11/01 03:37:11;;;;;;;3.90;2.50;;;13.80;99.90;;;;;;4995008;28;20505;-67
2021/11/01 03:39:41;;;;;;;5.07;2.40;;;13.80;99.90;;;;;;4994539;28;20543;-72
2021/11/01 03:42:09;;;;;;;5.10;2.27;;;13.70;99.90;;;;;;5000719;28;20464;-67
2021/11/01 03:44:38;;;;;;;4.60;2.87;;;13.70;99.90;;;;;;5014203;28;20579;-73
2021/11/01 03:47:06;;;;;;;4.23;3.40;;;13.70;99.90;;;;;;5014614;28;20508;-67
2021/11/01 03:49:36;;;;;;;4.33;2.40;;;13.70;99.90;;;;;;5014332;28;20420;-67
2021/11/01 03:52:10;;;;;;;5.10;2.50;;;13.70;99.90;;;;;;5014177;28;20485;-67
2021/11/01 03:54:38;;;;;;;5.47;2.43;;;13.70;99.90;;;;;;5013968;28;20539;-72
2021/11/01 03:57:08;;;;;;;4.83;3.00;;;13.60;99.90;;;;;;5013878;28;20433;-67
2021/11/01 03:59:35;;;;;;;4.77;2.93;;;13.40;99.90;;;;;;5014046;28;20472;-67
2021/11/01 04:02:01;;;;;;;5.27;2.60;;;13.40;99.90;;;;;;5013272;28;20423;-67
2021/11/01 04:04:28;;;;;;;4.40;3.23;;;13.40;99.90;;;;;;5013796;28;20507;-67
2021/11/01 04:06:54;;;;;;;2.53;2.33;;;13.40;99.90;;;;;;5012932;28;20425;-67
2021/11/01 04:09:20;;;;;;;8.67;3.60;;;13.30;99.90;;;;;;5013967;28;20421;-67
2021/11/01 04:11:50;;;;;;;4.50;4.10;;;13.20;99.90;;;;;;5012584;28;20415;-68
2021/11/01 04:14:22;;;;;;;5.90;2.90;;;13.20;99.90;;;;;;5013889;28;20182;-68
2021/11/01 04:16:55;;;;;;;7.27;4.27;;;13.20;99.90;;;;;;5013100;28;20405;-67
2021/11/01 04:19:34;;;;;;;3.50;3.20;;;13.40;99.90;;;;;;5013478;28;20462;-67
2021/11/01 04:22:00;;;;;;;5.97;2.97;;;13.30;99.90;;;;;;4994608;28;20405;-67
2021/11/01 04:24:29;;;;;;;5.80;2.80;;;13.30;99.90;;;;;;5013659;28;20890;-68
2021/11/01 04:26:56;;;;;;;4.03;3.57;;;13.30;99.90;;;;;;5012594;28;20183;-67
2021/11/01 04:29:21;;;;;;;5.17;3.53;;;13.20;99.90;;;;;;5013615;28;20790;-68
2021/11/01 04:31:55;;;;;;;2.90;2.70;;;13.20;99.90;;;;;;5012718;28;20504;-68
2021/11/01 04:34:32;;;;;;;4.30;3.90;;;13.20;99.90;;;;;;5012905;28;20177;-68
2021/11/01 04:36:58;;;;;;;5.27;3.07;;;13.20;99.90;;;;;;5013236;28;20412;-67
2021/11/01 04:55:21;;;;;;;4.77;2.50;;;13.20;99.90;;;;;;5012762;28;20499;-68
2021/11/01 04:57:47;;;;;;;3.80;2.73;;;13.20;99.90;;;;;;5012351;28;20773;-68
2021/11/01 05:00:13;;;;;;;5.60;3.70;;;13.20;99.90;;;;;;5013008;28;20470;-67
2021/11/01 05:02:44;;;;;;;6.30;2.70;;;13.20;99.90;;;;;;5012835;28;20204;-74
2021/11/01 05:05:10;;;;;;;7.83;4.73;;;13.10;99.90;;;;;;5012374;28;20818;-67
2021/11/01 05:07:36;;;;;;;4.33;3.93;;;13.00;99.90;;;;;;5013196;28;20522;-67
2021/11/01 05:10:07;;;;;;;4.10;2.47;;;13.10;99.90;;;;;;5012644;28;20443;-68
2021/11/01 05:12:51;;;;;;;3.83;2.70;;;13.00;99.90;;;;;;5012968;28;20642;-68
2021/11/01 05:17:49;;;;;;;2.60;2.40;;;13.00;99.90;;;;;;5014301;28;20462;-68
2021/11/01 05:20:37;;;;;;;6.50;2.93;;;13.00;99.90;;;;;;5013270;28;20252;-67
2021/11/01 05:23:14;;;;;;;5.40;2.20;;;12.90;99.90;;;;;;5012383;28;20481;-68
2021/11/01 05:25:46;;;;;;;2.83;2.23;;;13.00;99.90;;;;;;5013017;28;20397;-73
2021/11/01 05:28:39;;;;;;;5.37;2.53;;;13.00;99.90;;;;;;5012713;28;20432;-68
2021/11/01 05:31:09;;;;;;;4.50;2.70;;;13.00;99.90;;;;;;5006943;28;20429;-67
2021/11/01 05:36:20;;;;;;;2.60;2.50;;;13.00;99.90;;;;;;5012692;28;20400;-68
2021/11/01 05:38:47;;;;;;;5.80;3.10;;;13.00;99.90;;;;;;5017939;28;20426;-68
2021/11/01 05:41:13;;;;;;;3.70;2.50;;;13.10;99.90;;;;;;5027827;28;20425;-67
2021/11/01 05:43:39;;;;;;;4.00;2.70;;;13.10;99.90;;;;;;5013142;28;20543;-68
2021/11/01 05:46:05;;;;;;;5.73;3.37;;;13.10;99.90;;;;;;5016659;28;20229;-68
2021/11/01 05:48:30;;;;;;;2.80;2.50;;;13.20;99.90;;;;;;5021945;28;20234;-68
2021/11/01 05:50:56;;;;;;;3.50;2.70;;;13.10;99.90;;;;;;5012034;28;20192;-68
2021/11/01 05:53:24;;;;;;;5.27;2.83;;;13.00;99.90;;;;;;5012543;28;20188;-68
2021/11/01 05:56:14;;;;;;;6.63;3.07;;;13.10;99.90;;;;;;5011550;28;20428;-68
2021/11/01 05:58:52;;;;;;;3.37;2.40;;;13.20;99.90;;;;;;4994769;28;20438;-68
2021/11/01 06:14:38;;;;;;;5.03;3.90;;;13.10;99.90;;;;;;5005937;28;20515;-68
2021/11/01 06:17:04;;;;;;;3.53;2.80;;;13.00;99.90;;;;;;4992281;28;20525;-68
2021/11/01 06:19:30;;;;;;;2.83;2.40;;;12.90;99.90;;;;;;5010791;28;20565;-68
2021/11/01 06:21:55;;;;;;;3.83;3.40;;;12.90;99.90;;;;;;5011136;28;20463;-69
2021/11/01 06:26:59;;;;;;;4.60;3.50;;;12.80;99.90;;;;;;5011136;28;20612;-68
2021/11/01 06:29:29;;;;;;;2.83;2.70;;;12.70;99.90;;;;;;5011938;28;20426;-71
2021/11/01 06:40:18;;;;;;;4.07;3.10;;;12.90;99.90;;;;;;5011660;28;20201;-68
2021/11/01 06:45:29;;;;;;;3.20;2.80;;;13.10;99.90;;;;;;5012901;28;20777;-68
2021/11/01 07:16:58;;;;;;;4.20;3.20;;;13.10;99.90;;;;;;5014715;28;20419;-68
2021/11/01 08:42:41;;;;;;;3.23;2.53;;;15.00;96.50;;;;;;5011977;28;20463;-68
2021/11/01 08:45:26;;;;;;;2.90;2.50;;;14.80;96.60;;;;;;5008415;28;20514;-68
2021/11/01 08:48:14;;;;;;;2.70;2.40;;;14.80;96.40;;;;;;5010121;28;20421;-74
2021/11/01 09:02:08;;;;;;;3.40;2.43;;;15.60;94.80;;;;;;5010544;28;20421;-69
2021/11/01 09:05:02;;;;;;;6.47;2.13;;;15.80;94.20;;;;;;5010403;28;20487;-69
2021/11/01 09:29:12;;;;;;;2.30;2.10;;;17.00;92.30;;;;;;4978446;28;20437;-67
2021/11/01 09:42:42;;;;;;;2.73;2.17;;;16.70;92.10;;;;;;5003573;28;20457;-69
2021/11/01 09:45:09;;;;;;;2.83;2.20;;;16.70;91.80;;;;;;5010758;28;20422;-68
2021/11/01 09:47:36;;;;;;;5.20;2.50;;;16.80;92.50;;;;;;5012333;28;20424;-69
2021/11/01 09:50:03;;;;;;;116.27;78.37;;;16.80;91.90;;;;;;5011443;28;20417;-70
2021/11/01 09:52:29;;;;;;;26.63;20.03;;;16.90;91.80;;;;;;5011856;28;20476;-69
2021/11/01 09:54:57;;;;;;;2.40;2.20;;;16.80;91.50;;;;;;5011852;28;20454;-70
2021/11/01 09:57:34;;;;;;;3.03;2.70;;;16.90;91.80;;;;;;5011037;28;20504;-69
2021/11/01 09:59:59;;;;;;;3.20;2.10;;;16.90;91.60;;;;;;5016041;28;20460;-69
2021/11/01 10:02:26;;;;;;;3.10;2.33;;;17.00;91.90;;;;;;5011054;28;20760;-69
2021/11/01 10:04:54;;;;;;;2.53;2.40;;;17.00;90.70;;;;;;4994163;28;20218;-71
2021/11/01 10:07:32;;;;;;;4.20;3.27;;;16.80;90.70;;;;;;5011725;28;20409;-69
2021/11/01 10:10:05;;;;;;;4.60;3.33;;;16.60;90.80;;;;;;5006163;28;20463;-74
2021/11/01 10:12:34;;;;;;;3.73;2.80;;;16.60;91.60;;;;;;5005741;28;20487;-67
2021/11/01 10:18:19;;;;;;;3.60;2.80;;;16.80;91.70;;;;;;5008321;28;20418;-68
2021/11/01 10:20:54;;;;;;;2.60;2.40;;;16.70;90.20;;;;;;5012623;28;20458;-70
2021/11/01 10:23:24;;;;;;;5.30;3.07;;;16.90;90.70;;;;;;5014059;28;20471;-69
2021/11/01 10:26:08;;;;;;;3.20;2.30;;;17.10;90.50;;;;;;5014428;28;20429;-67
2021/11/01 10:28:34;;;;;;;413.33;297.17;;;17.40;89.30;;;;;;4991988;28;20541;-67
2021/11/01 10:31:12;;;;;;;11.00;6.57;;;17.60;88.20;;;;;;5013368;28;20420;-66
2021/11/01 10:33:46;;;;;;;3.00;2.67;;;17.80;87.90;;;;;;5014666;28;20759;-65
2021/11/01 10:36:23;;;;;;;2.87;2.60;;;17.80;88.10;;;;;;5014058;28;20418;-66
2021/11/01 10:39:14;;;;;;;2.67;2.37;;;17.80;87.10;;;;;;5015241;28;20817;-66
2021/11/01 10:42:23;;;;;;;3.47;2.40;;;17.80;85.90;;;;;;4987447;28;20490;-66
2021/11/01 11:12:32;;;;;;;2.70;2.50;;;17.90;88.10;;;;;;5014802;28;20889;-68
2021/11/01 11:15:07;;;;;;;2.83;2.60;;;17.90;86.30;;;;;;5014628;28;20422;-69
2021/11/01 11:17:47;;;;;;;2.57;2.47;;;18.00;88.00;;;;;;5015003;28;20789;-68
2021/11/01 11:47:47;;;;;;;2.27;2.07;;;18.50;79.30;;;;;;5014693;28;20413;-68
2021/11/01 11:50:17;;;;;;;3.53;2.20;;;18.40;76.70;;;;;;5014096;28;20529;-68
2021/11/01 11:52:43;;;;;;;3.13;1.90;;;18.20;77.60;;;;;;5014695;28;20426;-70
2021/11/01 11:55:18;;;;;;;3.87;2.40;;;18.30;79.60;;;;;;5014104;28;20398;-70
2021/11/01 11:57:54;;;;;;;2.37;2.20;;;18.30;78.70;;;;;;4996855;28;20408;-70
2021/11/01 12:00:20;;;;;;;2.60;2.40;;;18.20;78.20;;;;;;5013805;28;20882;-69
2021/11/01 12:02:51;;;;;;;2.97;2.30;;;18.00;77.10;;;;;;5014484;28;20506;-70
2021/11/01 12:05:37;;;;;;;2.33;1.97;;;17.80;77.20;;;;;;5013969;28;20156;-69
2021/11/01 12:08:25;;;;;;;2.23;2.10;;;17.70;78.10;;;;;;5013784;28;20422;-70
2021/11/01 12:18:51;;;;;;;36.17;31.87;;;17.50;77.10;;;;;;5014294;28;20179;-70
2021/11/01 12:21:16;;;;;;;4.77;4.00;;;17.40;75.70;;;;;;5013495;28;20463;-68
2021/11/01 12:23:43;;;;;;;42.57;35.87;;;17.40;77.10;;;;;;4996717;28;20418;-69
2021/11/01 12:26:13;;;;;;;43.27;35.47;;;17.40;76.60;;;;;;5013421;28;20179;-68
2021/11/01 12:28:41;;;;;;;47.13;36.13;;;17.30;77.60;;;;;;4996720;28;20424;-69
2021/11/01 12:31:13;;;;;;;4.10;2.63;;;17.30;77.60;;;;;;5013394;28;20436;-70
2021/11/01 12:33:45;;;;;;;2.40;2.20;;;17.30;76.80;;;;;;5013722;28;20577;-69
2021/11/01 12:36:13;;;;;;;2.03;1.93;;;17.40;78.00;;;;;;5013444;28;20456;-68
2021/11/01 12:38:52;;;;;;;2.90;2.67;;;17.30;77.30;;;;;;5013854;28;20414;-70
2021/11/01 12:41:42;;;;;;;185.87;111.27;;;17.30;76.90;;;;;;5012925;28;21156;-69
2021/11/01 12:49:47;;;;;;;3.30;3.00;;;17.00;76.70;;;;;;5012973;28;20452;-69
2021/11/01 12:57:44;;;;;;;3.03;2.37;;;16.80;77.40;;;;;;5013539;28;20402;-69
2021/11/01 13:00:15;;;;;;;2.50;2.30;;;16.70;77.60;;;;;;5012817;28;20580;-70
2021/11/01 13:02:47;;;;;;;2.30;2.10;;;16.60;77.50;;;;;;5013511;28;20390;-69
2021/11/01 13:05:18;;;;;;;2.60;2.40;;;16.50;77.90;;;;;;5012895;28;20410;-69
2021/11/01 13:08:04;;;;;;;2.23;2.13;;;16.50;78.50;;;;;;5013759;28;20406;-70
2021/11/01 13:18:38;;;;;;;112.00;74.23;;;16.50;77.60;;;;;;5013141;28;20414;-68
2021/11/01 13:21:23;;;;;;;3.00;2.80;;;16.50;78.90;;;;;;5011586;28;20462;-69
2021/11/01 13:23:50;;;;;;;2.40;2.30;;;16.40;78.60;;;;;;4993576;28;20410;-68
2021/11/01 13:26:36;;;;;;;2.10;2.00;;;16.40;78.60;;;;;;4992876;28;20421;-69
2021/11/01 13:35:13;;;;;;;2.50;2.40;;;16.40;77.20;;;;;;5010780;28;20422;-68
2021/11/01 13:37:41;;;;;;;2.63;2.13;;;16.40;78.00;;;;;;5008512;28;20422;-68
2021/11/01 13:40:14;;;;;;;3.90;2.20;;;16.40;76.80;;;;;;5011624;28;20548;-75
2021/11/01 13:42:53;;;;;;;2.30;2.20;;;16.30;76.90;;;;;;5011981;28;20573;-68
2021/11/01 13:45:20;;;;;;;3.63;2.20;;;16.30;76.40;;;;;;5011775;28;20433;-68
2021/11/01 13:47:53;;;;;;;2.00;1.90;;;16.30;78.00;;;;;;5012507;28;20516;-68
2021/11/01 13:50:21;;;;;;;2.90;2.23;;;16.30;77.40;;;;;;4994417;28;20824;-68
2021/11/01 13:53:00;;;;;;;1.90;1.80;;;16.20;77.60;;;;;;5012821;28;20406;-68
2021/11/01 13:56:05;;;;;;;2.30;2.10;;;16.20;76.20;;;;;;5015362;28;20418;-68
2021/11/01 14:14:32;;;;;;;3.73;2.00;;;16.40;80.80;;;;;;5014741;28;20409;-68
2021/11/01 14:17:29;;;;;;;2.33;2.20;;;16.50;78.10;;;;;;5015514;28;20662;-68
2021/11/01 14:20:08;;;;;;;2.23;2.03;;;16.50;74.90;;;;;;5001194;28;20479;-67
2021/11/01 14:30:45;;;;;;;1.97;1.60;;;16.70;75.40;;;;;;5015760;28;20405;-68
2021/11/01 15:11:32;;;;;;;11.30;9.07;;;16.40;75.20;;;;;;5006573;28;20760;-69
2021/11/01 15:16:34;;;;;;;2.23;2.10;;;16.40;75.80;;;;;;5014598;28;20421;-69
2021/11/01 15:29:35;;;;;;;3.07;2.20;;;16.20;75.90;;;;;;5014530;28;20536;-69
2021/11/01 15:37:56;;;;;;;4.03;3.03;;;16.00;76.80;;;;;;5003534;28;20479;-68
2021/11/01 16:18:18;;;;;;;2.97;2.70;;;15.40;79.70;;;;;;5010202;28;20466;-69
2021/11/01 16:20:47;;;;;;;3.40;3.20;;;15.40;80.00;;;;;;5011506;28;20472;-69
2021/11/01 16:25:56;;;;;;;3.40;3.10;;;15.30;79.80;;;;;;5010742;28;20416;-71
2021/11/01 16:28:23;;;;;;;3.30;3.10;;;15.40;80.30;;;;;;4993141;28;20424;-69
2021/11/01 16:31:12;;;;;;;3.90;3.47;;;15.40;81.30;;;;;;4993346;28;20493;-68
2021/11/01 16:33:50;;;;;;;3.87;3.60;;;15.30;81.60;;;;;;5009352;28;20512;-68
2021/11/01 16:39:15;;;;;;;106.10;82.83;;;15.20;81.70;;;;;;5010696;28;20411;-68
2021/11/01 16:41:42;;;;;;;104.67;62.70;;;15.20;81.70;;;;;;4997921;28;20475;-69
2021/11/01 16:47:03;;;;;;;4.10;3.80;;;15.10;82.50;;;;;;5001974;28;20482;-67
2021/11/01 16:49:30;;;;;;;4.40;4.00;;;15.10;83.40;;;;;;4992815;28;20431;-68
2021/11/01 16:51:57;;;;;;;5.23;4.67;;;15.00;83.20;;;;;;5009489;28;20232;-67
2021/11/01 16:54:29;;;;;;;5.33;4.90;;;14.90;83.70;;;;;;5010200;28;20589;-67
2021/11/01 16:57:20;;;;;;;4.87;4.33;;;14.90;83.80;;;;;;4993430;28;20470;-67
2021/11/01 17:03:03;;;;;;;5.17;4.77;;;14.70;84.60;;;;;;5010030;28;20425;-68
2021/11/01 17:08:21;;;;;;;35.43;27.20;;;14.60;84.20;;;;;;5012337;28;20411;-67
2021/11/01 17:21:19;;;;;;;6.83;3.97;;;14.60;85.00;;;;;;5010344;28;20414;-67
2021/11/01 17:21:50;;;;;;;4.57;4.00;;;14.60;85.10;;;;;;5009776;28;20931;-68
2021/11/01 18:39:10;;;;;;;4.87;4.33;;;13.90;87.70;;;;;;5008821;28;20421;-70
2021/11/01 18:42:02;;;;;;;59.70;50.03;;;13.90;87.50;;;;;;5009765;28;20562;-68
2021/11/01 18:52:15;;;;;;;4.60;4.07;;;14.10;88.10;;;;;;5014108;28;20416;-66
2021/11/01 18:54:44;;;;;;;8.33;4.93;;;14.00;88.20;;;;;;5013001;28;20750;-65
2021/11/01 18:57:12;;;;;;;5.50;5.10;;;13.90;88.40;;;;;;5014653;28;20455;-66
2021/11/01 18:59:40;;;;;;;5.23;4.83;;;13.90;88.70;;;;;;5010496;28;20461;-71
2021/11/01 19:05:26;;;;;;;4.63;4.23;;;13.80;89.80;;;;;;4948172;28;20431;-67
2021/11/01 20:05:06;;;;;;;3.37;3.07;;;13.30;91.50;;;;;;5008682;28;20469;-66
2021/11/01 20:15:31;;;;;;;6.80;4.57;;;13.20;91.70;;;;;;5009293;28;20460;-67
2021/11/01 21:24:50;;;;;;;3.83;3.30;;;13.10;93.50;;;;;;5009225;28;20416;-69
2021/11/01 21:27:21;;;;;;;4.13;3.73;;;13.10;94.50;;;;;;5011830;28;20427;-75
2021/11/01 21:29:47;;;;;;;3.63;3.33;;;13.10;94.40;;;;;;5011783;28;20431;-67
2021/11/01 21:32:13;;;;;;;3.30;2.60;;;13.10;94.50;;;;;;5012319;28;20473;-67
2021/11/01 21:34:43;;;;;;;3.27;2.97;;;13.10;94.80;;;;;;5010714;28;20718;-67
2021/11/01 21:37:09;;;;;;;5.27;2.57;;;13.10;94.60;;;;;;5012087;28;20921;-67
2021/11/01 21:39:36;;;;;;;2.70;2.50;;;13.10;94.90;;;;;;4993576;28;20510;-68
2021/11/01 21:42:03;;;;;;;4.00;2.87;;;13.20;94.60;;;;;;5011447;28;20918;-67
2021/11/01 21:44:39;;;;;;;4.93;2.90;;;13.20;94.60;;;;;;5011438;28;20439;-68
2021/11/01 21:47:05;;;;;;;4.77;2.93;;;13.20;94.50;;;;;;5012227;28;20968;-68
2021/11/01 21:49:31;;;;;;;3.67;3.37;;;13.20;94.60;;;;;;5010980;28;20507;-68
2021/11/01 21:51:57;;;;;;;3.00;2.80;;;13.20;94.10;;;;;;5012154;28;20558;-68
2021/11/01 21:54:39;;;;;;;6.13;4.10;;;13.30;94.20;;;;;;5011559;28;20181;-68
2021/11/01 21:57:12;;;;;;;4.03;3.63;;;13.30;94.10;;;;;;4980581;28;20433;-68
2021/11/01 22:09:46;;;;;;;6.20;3.40;;;13.20;95.30;;;;;;5011705;28;20425;-68
2021/11/01 22:21:42;;;;;;;6.13;3.20;;;13.00;95.80;;;;;;5015242;28;20507;-68
2021/11/01 22:24:13;;;;;;;4.87;3.20;;;13.00;95.30;;;;;;5016057;28;20447;-68
2021/11/01 22:34:48;;;;;;;5.83;3.40;;;13.00;96.20;;;;;;5014454;28;20511;-68
2021/11/01 22:45:16;;;;;;;6.23;4.07;;;13.00;97.60;;;;;;4997634;28;20429;-67
2021/11/01 22:56:22;;;;;;;3.43;3.13;;;12.90;95.40;;;;;;5014252;28;20448;-68
2021/11/01 22:58:41;;;;;;;3.93;3.53;;;12.90;95.30;;;;;;5012313;28;20860;-68
2021/11/01 23:01:36;;;;;;;4.10;3.80;;;12.80;95.30;;;;;;5014900;28;20464;-68
2021/11/01 23:33:54;;;;;;;6.07;3.90;;;12.20;96.50;;;;;;4995343;28;20399;-67
2021/11/01 23:36:20;;;;;;;4.60;3.33;;;12.10;96.40;;;;;;4995222;28;20410;-67
2021/11/01 23:38:45;;;;;;;2.97;2.77;;;12.10;96.60;;;;;;4994530;28;20493;-67
2021/11/01 23:41:11;;;;;;;3.60;2.87;;;12.10;96.90;;;;;;4994679;28;20580;-67
2021/11/01 23:43:37;;;;;;;4.40;3.43;;;12.10;97.00;;;;;;4993706;28;20239;-67
2021/11/01 23:46:03;;;;;;;4.40;3.50;;;12.00;97.20;;;;;;4994656;28;20816;-67
2021/11/01 23:48:30;;;;;;;9.20;3.37;;;12.00;97.50;;;;;;4994074;28;20452;-67
2021/11/01 23:50:56;;;;;;;8.00;3.20;;;11.90;97.80;;;;;;4994497;28;20428;-67
2021/11/01 23:56:12;;;;;;;3.70;3.40;;;11.90;98.40;;;;;;4960034;28;20423;-67
2021/11/01 23:58:39;;;;;;;3.50;3.20;;;11.90;98.60;;;;;;5011798;28;20430;-67
